sensor_id;sensor_type;location;lat;lon;timestamp;temperature;humidity
10245;DHT22;5167;52.164;10.530;2023-02-01T00:01:53;7.50;27.70
10245;DHT22;5167;52.164;10.530;2023-02-01T00:04:19;7.50;28.10
10245;DHT22;5167;52.164;10.530;2023-02-01T00:06:44;7.60;27.40
10245;DHT22;5167;52.164;10.530;2023-02-01T00:09:10;7.50;26.30
10245;DHT22;5167;52.164;10.530;2023-02-01T00:11:35;7.50;26.90
10245;DHT22;5167;52.164;10.530;2023-02-01T00:14:00;7.50;26.60
10245;DHT22;5167;52.164;10.530;2023-02-01T00:16:29;7.60;27.80
10245;DHT22;5167;52.164;10.530;2023-02-01T00:19:32;7.60;27.90
10245;DHT22;5167;52.164;10.530;2023-02-01T00:21:51;7.50;27.20
10245;DHT22;5167;52.164;10.530;2023-02-01T00:24:16;7.60;27.90
10245;DHT22;5167;52.164;10.530;2023-02-01T00:26:44;7.60;27.40
10245;DHT22;5167;52.164;10.530;2023-02-01T00:29:15;7.60;28.20
10245;DHT22;5167;52.164;10.530;2023-02-01T00:31:42;7.50;27.50
10245;DHT22;5167;52.164;10.530;2023-02-01T00:34:13;7.50;27.50
10245;DHT22;5167;52.164;10.530;2023-02-01T00:36:39;7.50;27.50
10245;DHT22;5167;52.164;10.530;2023-02-01T00:39:04;7.40;28.20
10245;DHT22;5167;52.164;10.530;2023-02-01T00:41:30;7.40;28.10
10245;DHT22;5167;52.164;10.530;2023-02-01T00:43:55;7.50;28.20
10245;DHT22;5167;52.164;10.530;2023-02-01T00:46:21;7.40;28.60
10245;DHT22;5167;52.164;10.530;2023-02-01T00:48:47;7.50;28.70
10245;DHT22;5167;52.164;10.530;2023-02-01T00:51:15;7.50;28.70
10245;DHT22;5167;52.164;10.530;2023-02-01T00:53:41;7.50;28.70
10245;DHT22;5167;52.164;10.530;2023-02-01T00:56:07;7.50;28.50
10245;DHT22;5167;52.164;10.530;2023-02-01T00:58:33;7.50;28.70
10245;DHT22;5167;52.164;10.530;2023-02-01T01:01:13;7.40;28.30
10245;DHT22;5167;52.164;10.530;2023-02-01T01:03:41;7.30;29.10
10245;DHT22;5167;52.164;10.530;2023-02-01T01:06:09;7.30;29.20
10245;DHT22;5167;52.164;10.530;2023-02-01T01:08:36;7.30;29.30
10245;DHT22;5167;52.164;10.530;2023-02-01T01:11:16;7.40;28.80
10245;DHT22;5167;52.164;10.530;2023-02-01T01:13:43;7.30;30.00
10245;DHT22;5167;52.164;10.530;2023-02-01T01:16:10;7.30;30.10
10245;DHT22;5167;52.164;10.530;2023-02-01T01:18:36;7.40;29.00
10245;DHT22;5167;52.164;10.530;2023-02-01T01:21:04;7.30;29.60
10245;DHT22;5167;52.164;10.530;2023-02-01T01:23:31;7.40;29.70
10245;DHT22;5167;52.164;10.530;2023-02-01T01:25:56;7.30;29.60
10245;DHT22;5167;52.164;10.530;2023-02-01T01:28:22;7.30;28.90
10245;DHT22;5167;52.164;10.530;2023-02-01T01:30:47;7.40;29.40
10245;DHT22;5167;52.164;10.530;2023-02-01T01:33:13;7.20;29.50
10245;DHT22;5167;52.164;10.530;2023-02-01T01:35:39;7.20;29.70
10245;DHT22;5167;52.164;10.530;2023-02-01T01:38:04;7.20;29.20
10245;DHT22;5167;52.164;10.530;2023-02-01T01:40:30;7.20;29.60
10245;DHT22;5167;52.164;10.530;2023-02-01T01:42:57;7.50;29.60
10245;DHT22;5167;52.164;10.530;2023-02-01T01:47:55;7.30;29.60
10245;DHT22;5167;52.164;10.530;2023-02-01T01:50:29;7.30;29.10
10245;DHT22;5167;52.164;10.530;2023-02-01T01:52:58;7.40;28.80
10245;DHT22;5167;52.164;10.530;2023-02-01T01:55:27;7.30;28.40
10245;DHT22;5167;52.164;10.530;2023-02-01T01:58:02;7.20;28.30
10245;DHT22;5167;52.164;10.530;2023-02-01T02:00:28;7.20;28.80
10245;DHT22;5167;52.164;10.530;2023-02-01T02:02:58;7.10;29.10
10245;DHT22;5167;52.164;10.530;2023-02-01T02:05:25;7.00;29.60
10245;DHT22;5167;52.164;10.530;2023-02-01T02:07:53;7.00;30.30
10245;DHT22;5167;52.164;10.530;2023-02-01T02:10:22;7.30;30.50
10245;DHT22;5167;52.164;10.530;2023-02-01T02:13:07;7.10;29.70
10245;DHT22;5167;52.164;10.530;2023-02-01T02:15:43;7.10;30.10
10245;DHT22;5167;52.164;10.530;2023-02-01T02:18:27;7.10;30.60
10245;DHT22;5167;52.164;10.530;2023-02-01T02:23:49;7.10;30.20
10245;DHT22;5167;52.164;10.530;2023-02-01T02:26:56;7.20;30.60
10245;DHT22;5167;52.164;10.530;2023-02-01T02:30:01;7.20;30.30
10245;DHT22;5167;52.164;10.530;2023-02-01T02:32:44;7.10;30.60
10245;DHT22;5167;52.164;10.530;2023-02-01T02:35:24;7.20;30.00
10245;DHT22;5167;52.164;10.530;2023-02-01T02:38:17;7.10;29.60
10245;DHT22;5167;52.164;10.530;2023-02-01T02:43:29;7.00;29.30
10245;DHT22;5167;52.164;10.530;2023-02-01T02:46:25;7.10;29.70
10245;DHT22;5167;52.164;10.530;2023-02-01T02:49:13;7.10;29.60
10245;DHT22;5167;52.164;10.530;2023-02-01T02:51:42;7.00;30.10
10245;DHT22;5167;52.164;10.530;2023-02-01T02:54:33;6.90;30.70
10245;DHT22;5167;52.164;10.530;2023-02-01T02:57:19;6.90;31.50
10245;DHT22;5167;52.164;10.530;2023-02-01T03:00:07;6.80;31.70
10245;DHT22;5167;52.164;10.530;2023-02-01T03:02:52;6.90;31.80
10245;DHT22;5167;52.164;10.530;2023-02-01T03:05:41;6.90;31.40
10245;DHT22;5167;52.164;10.530;2023-02-01T03:08:22;6.80;31.30
10245;DHT22;5167;52.164;10.530;2023-02-01T03:11:01;6.80;31.70
10245;DHT22;5167;52.164;10.530;2023-02-01T03:16:17;6.80;31.50
10245;DHT22;5167;52.164;10.530;2023-02-01T03:19:00;6.80;32.00
10245;DHT22;5167;52.164;10.530;2023-02-01T03:21:39;6.90;30.80
10245;DHT22;5167;52.164;10.530;2023-02-01T03:24:12;6.80;31.00
10245;DHT22;5167;52.164;10.530;2023-02-01T03:26:45;6.80;31.10
10245;DHT22;5167;52.164;10.530;2023-02-01T03:29:16;7.00;31.00
10245;DHT22;5167;52.164;10.530;2023-02-01T03:31:42;6.90;30.90
10245;DHT22;5167;52.164;10.530;2023-02-01T03:34:10;6.90;31.20
10245;DHT22;5167;52.164;10.530;2023-02-01T03:36:41;7.00;30.00
10245;DHT22;5167;52.164;10.530;2023-02-01T03:39:19;6.90;30.90
10245;DHT22;5167;52.164;10.530;2023-02-01T03:41:53;7.00;31.00
10245;DHT22;5167;52.164;10.530;2023-02-01T03:44:25;6.90;30.30
10245;DHT22;5167;52.164;10.530;2023-02-01T03:46:55;6.90;30.40
10245;DHT22;5167;52.164;10.530;2023-02-01T03:52:00;7.10;30.70
10245;DHT22;5167;52.164;10.530;2023-02-01T03:54:27;7.00;30.80
10245;DHT22;5167;52.164;10.530;2023-02-01T03:56:56;7.10;31.00
10245;DHT22;5167;52.164;10.530;2023-02-01T03:59:23;7.00;30.70
10245;DHT22;5167;52.164;10.530;2023-02-01T04:01:49;6.90;31.60
10245;DHT22;5167;52.164;10.530;2023-02-01T04:04:15;6.90;31.00
10245;DHT22;5167;52.164;10.530;2023-02-01T04:06:48;7.00;31.80
10245;DHT22;5167;52.164;10.530;2023-02-01T04:09:14;7.00;31.80
10245;DHT22;5167;52.164;10.530;2023-02-01T04:11:40;7.00;31.60
10245;DHT22;5167;52.164;10.530;2023-02-01T04:14:05;7.10;31.70
10245;DHT22;5167;52.164;10.530;2023-02-01T04:16:32;7.20;31.80
10245;DHT22;5167;52.164;10.530;2023-02-01T04:18:58;7.10;32.40
10245;DHT22;5167;52.164;10.530;2023-02-01T04:21:24;7.20;32.90
10245;DHT22;5167;52.164;10.530;2023-02-01T04:23:50;7.30;33.00
10245;DHT22;5167;52.164;10.530;2023-02-01T04:26:15;7.10;34.80
10245;DHT22;5167;52.164;10.530;2023-02-01T04:28:41;7.00;35.30
10245;DHT22;5167;52.164;10.530;2023-02-01T04:31:07;7.00;35.60
10245;DHT22;5167;52.164;10.530;2023-02-01T04:33:33;7.00;35.60
10245;DHT22;5167;52.164;10.530;2023-02-01T04:35:58;7.00;36.90
10245;DHT22;5167;52.164;10.530;2023-02-01T04:38:24;7.00;37.20
10245;DHT22;5167;52.164;10.530;2023-02-01T04:40:49;7.00;37.10
10245;DHT22;5167;52.164;10.530;2023-02-01T04:43:16;7.10;37.20
10245;DHT22;5167;52.164;10.530;2023-02-01T04:45:47;7.20;37.10
10245;DHT22;5167;52.164;10.530;2023-02-01T04:48:13;7.10;37.90
10245;DHT22;5167;52.164;10.530;2023-02-01T04:50:38;7.10;37.70
10245;DHT22;5167;52.164;10.530;2023-02-01T04:53:04;7.00;37.70
10245;DHT22;5167;52.164;10.530;2023-02-01T04:55:29;7.00;38.20
10245;DHT22;5167;52.164;10.530;2023-02-01T04:57:55;7.00;38.10
10245;DHT22;5167;52.164;10.530;2023-02-01T05:00:21;7.00;37.90
10245;DHT22;5167;52.164;10.530;2023-02-01T05:02:47;7.00;38.10
10245;DHT22;5167;52.164;10.530;2023-02-01T05:05:13;7.00;38.90
10245;DHT22;5167;52.164;10.530;2023-02-01T05:07:38;6.90;38.60
10245;DHT22;5167;52.164;10.530;2023-02-01T05:10:04;6.90;38.40
10245;DHT22;5167;52.164;10.530;2023-02-01T05:12:29;6.70;37.90
10245;DHT22;5167;52.164;10.530;2023-02-01T05:15:13;6.90;37.70
10245;DHT22;5167;52.164;10.530;2023-02-01T05:17:38;6.80;37.50
10245;DHT22;5167;52.164;10.530;2023-02-01T05:20:06;6.80;37.50
10245;DHT22;5167;52.164;10.530;2023-02-01T05:22:32;6.80;38.00
10245;DHT22;5167;52.164;10.530;2023-02-01T05:24:57;6.90;36.90
10245;DHT22;5167;52.164;10.530;2023-02-01T05:27:23;6.90;36.30
10245;DHT22;5167;52.164;10.530;2023-02-01T05:29:48;6.90;36.90
10245;DHT22;5167;52.164;10.530;2023-02-01T05:32:14;6.90;36.70
10245;DHT22;5167;52.164;10.530;2023-02-01T05:34:39;7.10;37.40
10245;DHT22;5167;52.164;10.530;2023-02-01T05:37:05;7.00;38.10
10245;DHT22;5167;52.164;10.530;2023-02-01T05:39:30;6.90;39.90
10245;DHT22;5167;52.164;10.530;2023-02-01T05:41:56;7.00;41.40
10245;DHT22;5167;52.164;10.530;2023-02-01T05:44:21;6.90;42.30
10245;DHT22;5167;52.164;10.530;2023-02-01T05:46:47;6.80;43.40
10245;DHT22;5167;52.164;10.530;2023-02-01T05:49:12;6.70;44.60
10245;DHT22;5167;52.164;10.530;2023-02-01T05:51:38;6.70;44.10
10245;DHT22;5167;52.164;10.530;2023-02-01T05:54:03;6.80;45.00
10245;DHT22;5167;52.164;10.530;2023-02-01T05:56:29;6.70;44.60
10245;DHT22;5167;52.164;10.530;2023-02-01T05:58:54;6.70;44.50
10245;DHT22;5167;52.164;10.530;2023-02-01T06:01:20;6.70;44.20
10245;DHT22;5167;52.164;10.530;2023-02-01T06:03:45;6.80;45.10
10245;DHT22;5167;52.164;10.530;2023-02-01T06:06:11;6.70;45.50
10245;DHT22;5167;52.164;10.530;2023-02-01T06:08:36;6.70;46.20
10245;DHT22;5167;52.164;10.530;2023-02-01T06:11:06;6.60;46.70
10245;DHT22;5167;52.164;10.530;2023-02-01T06:13:32;6.70;46.90
10245;DHT22;5167;52.164;10.530;2023-02-01T06:15:58;6.80;47.30
10245;DHT22;5167;52.164;10.530;2023-02-01T06:18:24;6.80;46.90
10245;DHT22;5167;52.164;10.530;2023-02-01T06:20:56;6.80;47.10
10245;DHT22;5167;52.164;10.530;2023-02-01T06:23:22;6.80;46.50
10245;DHT22;5167;52.164;10.530;2023-02-01T06:25:50;6.70;46.20
10245;DHT22;5167;52.164;10.530;2023-02-01T06:28:16;6.70;46.40
10245;DHT22;5167;52.164;10.530;2023-02-01T06:30:41;6.70;46.50
10245;DHT22;5167;52.164;10.530;2023-02-01T06:33:14;6.80;46.20
10245;DHT22;5167;52.164;10.530;2023-02-01T06:35:43;6.60;46.40
10245;DHT22;5167;52.164;10.530;2023-02-01T06:38:13;6.70;46.80
10245;DHT22;5167;52.164;10.530;2023-02-01T06:40:39;6.70;46.40
10245;DHT22;5167;52.164;10.530;2023-02-01T06:43:06;6.70;46.10
10245;DHT22;5167;52.164;10.530;2023-02-01T06:45:31;6.80;45.60
10245;DHT22;5167;52.164;10.530;2023-02-01T06:47:58;6.70;45.90
10245;DHT22;5167;52.164;10.530;2023-02-01T06:50:25;6.80;45.90
10245;DHT22;5167;52.164;10.530;2023-02-01T06:52:50;6.80;46.20
10245;DHT22;5167;52.164;10.530;2023-02-01T06:55:16;6.80;45.60
10245;DHT22;5167;52.164;10.530;2023-02-01T06:57:41;6.90;45.60
10245;DHT22;5167;52.164;10.530;2023-02-01T07:00:07;7.10;45.10
10245;DHT22;5167;52.164;10.530;2023-02-01T07:02:33;6.90;45.50
10245;DHT22;5167;52.164;10.530;2023-02-01T07:04:58;6.90;45.20
10245;DHT22;5167;52.164;10.530;2023-02-01T07:07:24;6.90;45.20
10245;DHT22;5167;52.164;10.530;2023-02-01T07:09:49;7.00;45.70
10245;DHT22;5167;52.164;10.530;2023-02-01T07:12:15;6.90;46.20
10245;DHT22;5167;52.164;10.530;2023-02-01T07:14:41;6.80;47.50
10245;DHT22;5167;52.164;10.530;2023-02-01T07:17:06;6.80;47.80
10245;DHT22;5167;52.164;10.530;2023-02-01T07:19:32;6.80;49.30
10245;DHT22;5167;52.164;10.530;2023-02-01T07:21:57;6.80;49.30
10245;DHT22;5167;52.164;10.530;2023-02-01T07:24:23;6.80;49.80
10245;DHT22;5167;52.164;10.530;2023-02-01T07:26:48;6.80;50.40
10245;DHT22;5167;52.164;10.530;2023-02-01T07:29:16;6.80;50.10
10245;DHT22;5167;52.164;10.530;2023-02-01T07:31:42;6.80;50.60
10245;DHT22;5167;52.164;10.530;2023-02-01T07:34:07;6.90;50.20
10245;DHT22;5167;52.164;10.530;2023-02-01T07:36:33;6.90;50.60
10245;DHT22;5167;52.164;10.530;2023-02-01T07:38:59;6.90;50.30
10245;DHT22;5167;52.164;10.530;2023-02-01T07:41:25;6.90;50.20
10245;DHT22;5167;52.164;10.530;2023-02-01T07:43:54;6.80;51.10
10245;DHT22;5167;52.164;10.530;2023-02-01T07:46:19;6.90;52.40
10245;DHT22;5167;52.164;10.530;2023-02-01T07:48:45;6.90;51.10
10245;DHT22;5167;52.164;10.530;2023-02-01T07:51:16;6.90;51.50
10245;DHT22;5167;52.164;10.530;2023-02-01T07:53:43;6.90;51.40
10245;DHT22;5167;52.164;10.530;2023-02-01T07:56:17;6.90;51.40
10245;DHT22;5167;52.164;10.530;2023-02-01T07:58:42;7.00;50.80
10245;DHT22;5167;52.164;10.530;2023-02-01T08:01:16;7.00;50.50
10245;DHT22;5167;52.164;10.530;2023-02-01T08:03:45;6.90;48.60
10245;DHT22;5167;52.164;10.530;2023-02-01T08:06:11;7.00;50.30
10245;DHT22;5167;52.164;10.530;2023-02-01T08:08:36;7.00;50.00
10245;DHT22;5167;52.164;10.530;2023-02-01T08:11:04;7.00;49.00
10245;DHT22;5167;52.164;10.530;2023-02-01T08:13:30;7.00;49.80
10245;DHT22;5167;52.164;10.530;2023-02-01T08:15:59;7.10;50.60
10245;DHT22;5167;52.164;10.530;2023-02-01T08:18:25;7.10;51.00
10245;DHT22;5167;52.164;10.530;2023-02-01T08:20:51;7.10;50.70
10245;DHT22;5167;52.164;10.530;2023-02-01T08:23:16;7.20;50.60
10245;DHT22;5167;52.164;10.530;2023-02-01T08:25:43;7.10;49.90
10245;DHT22;5167;52.164;10.530;2023-02-01T08:28:09;7.20;49.60
10245;DHT22;5167;52.164;10.530;2023-02-01T08:30:36;7.10;49.50
10245;DHT22;5167;52.164;10.530;2023-02-01T08:33:02;7.30;49.50
10245;DHT22;5167;52.164;10.530;2023-02-01T08:35:27;7.30;49.20
10245;DHT22;5167;52.164;10.530;2023-02-01T08:37:53;7.30;48.10
10245;DHT22;5167;52.164;10.530;2023-02-01T08:40:19;7.40;47.40
10245;DHT22;5167;52.164;10.530;2023-02-01T08:42:46;7.30;47.10
10245;DHT22;5167;52.164;10.530;2023-02-01T08:45:27;7.40;45.80
10245;DHT22;5167;52.164;10.530;2023-02-01T08:47:54;7.40;45.40
10245;DHT22;5167;52.164;10.530;2023-02-01T08:50:21;7.40;43.20
10245;DHT22;5167;52.164;10.530;2023-02-01T08:52:47;7.40;43.50
10245;DHT22;5167;52.164;10.530;2023-02-01T08:55:13;7.50;42.50
10245;DHT22;5167;52.164;10.530;2023-02-01T08:57:39;7.50;43.10
10245;DHT22;5167;52.164;10.530;2023-02-01T09:00:07;7.40;42.50
10245;DHT22;5167;52.164;10.530;2023-02-01T09:02:33;7.50;42.30
10245;DHT22;5167;52.164;10.530;2023-02-01T09:04:59;7.50;42.80
10245;DHT22;5167;52.164;10.530;2023-02-01T09:07:24;7.60;42.50
10245;DHT22;5167;52.164;10.530;2023-02-01T09:09:50;7.60;42.40
10245;DHT22;5167;52.164;10.530;2023-02-01T09:12:15;7.70;41.80
10245;DHT22;5167;52.164;10.530;2023-02-01T09:14:41;7.70;41.80
10245;DHT22;5167;52.164;10.530;2023-02-01T09:17:07;7.80;41.80
10245;DHT22;5167;52.164;10.530;2023-02-01T09:19:32;7.80;41.40
10245;DHT22;5167;52.164;10.530;2023-02-01T09:21:58;7.90;41.30
10245;DHT22;5167;52.164;10.530;2023-02-01T09:24:23;7.90;40.40
10245;DHT22;5167;52.164;10.530;2023-02-01T09:26:49;7.90;39.40
10245;DHT22;5167;52.164;10.530;2023-02-01T09:29:15;8.00;40.50
10245;DHT22;5167;52.164;10.530;2023-02-01T09:31:41;8.00;39.90
10245;DHT22;5167;52.164;10.530;2023-02-01T09:34:07;8.10;40.10
10245;DHT22;5167;52.164;10.530;2023-02-01T09:36:32;8.00;38.70
10245;DHT22;5167;52.164;10.530;2023-02-01T09:38:59;8.10;38.90
10245;DHT22;5167;52.164;10.530;2023-02-01T09:44:55;8.20;37.70
10245;DHT22;5167;52.164;10.530;2023-02-01T09:47:00;8.30;37.00
10245;DHT22;5167;52.164;10.530;2023-02-01T09:49:33;8.40;36.80
10245;DHT22;5167;52.164;10.530;2023-02-01T09:52:04;8.50;34.90
10245;DHT22;5167;52.164;10.530;2023-02-01T09:55:04;8.50;34.60
10245;DHT22;5167;52.164;10.530;2023-02-01T09:57:41;8.60;33.00
10245;DHT22;5167;52.164;10.530;2023-02-01T10:00:22;8.70;31.00
10245;DHT22;5167;52.164;10.530;2023-02-01T10:02:49;8.70;31.30
10245;DHT22;5167;52.164;10.530;2023-02-01T10:05:21;8.70;31.30
10245;DHT22;5167;52.164;10.530;2023-02-01T10:10:33;8.70;30.20
10245;DHT22;5167;52.164;10.530;2023-02-01T10:15:56;8.60;30.10
10245;DHT22;5167;52.164;10.530;2023-02-01T10:18:34;8.60;29.40
10245;DHT22;5167;52.164;10.530;2023-02-01T10:21:21;8.60;30.50
10245;DHT22;5167;52.164;10.530;2023-02-01T10:24:14;8.60;29.60
10245;DHT22;5167;52.164;10.530;2023-02-01T10:26:51;8.60;30.50
10245;DHT22;5167;52.164;10.530;2023-02-01T10:29:22;8.50;30.60
10245;DHT22;5167;52.164;10.530;2023-02-01T10:31:50;8.60;30.00
10245;DHT22;5167;52.164;10.530;2023-02-01T10:34:18;8.50;30.60
10245;DHT22;5167;52.164;10.530;2023-02-01T10:37:42;8.50;29.70
10245;DHT22;5167;52.164;10.530;2023-02-01T10:39:46;8.50;29.80
10245;DHT22;5167;52.164;10.530;2023-02-01T10:42:13;8.50;30.40
10245;DHT22;5167;52.164;10.530;2023-02-01T10:44:42;8.60;30.20
10245;DHT22;5167;52.164;10.530;2023-02-01T10:47:10;8.60;29.30
10245;DHT22;5167;52.164;10.530;2023-02-01T10:49:47;8.80;28.40
10245;DHT22;5167;52.164;10.530;2023-02-01T10:55:37;8.90;27.50
10245;DHT22;5167;52.164;10.530;2023-02-01T10:58:06;8.90;27.50
10245;DHT22;5167;52.164;10.530;2023-02-01T11:00:44;9.00;27.00
10245;DHT22;5167;52.164;10.530;2023-02-01T11:03:22;9.00;26.70
10245;DHT22;5167;52.164;10.530;2023-02-01T11:05:47;9.10;26.00
10245;DHT22;5167;52.164;10.530;2023-02-01T11:08:16;9.10;25.90
10245;DHT22;5167;52.164;10.530;2023-02-01T11:10:43;9.20;24.30
10245;DHT22;5167;52.164;10.530;2023-02-01T11:13:18;9.30;23.00
10245;DHT22;5167;52.164;10.530;2023-02-01T11:15:45;9.20;22.70
10245;DHT22;5167;52.164;10.530;2023-02-01T11:18:17;9.40;22.70
10245;DHT22;5167;52.164;10.530;2023-02-01T11:20:44;9.20;22.60
10245;DHT22;5167;52.164;10.530;2023-02-01T11:23:17;9.20;23.20
10245;DHT22;5167;52.164;10.530;2023-02-01T11:25:55;9.20;21.70
10245;DHT22;5167;52.164;10.530;2023-02-01T11:28:23;9.20;22.40
10245;DHT22;5167;52.164;10.530;2023-02-01T11:30:51;9.10;22.50
10245;DHT22;5167;52.164;10.530;2023-02-01T11:33:20;9.20;20.90
10245;DHT22;5167;52.164;10.530;2023-02-01T11:35:47;9.10;21.90
10245;DHT22;5167;52.164;10.530;2023-02-01T11:38:29;9.10;21.80
10245;DHT22;5167;52.164;10.530;2023-02-01T11:41:00;9.10;21.00
10245;DHT22;5167;52.164;10.530;2023-02-01T11:43:36;9.10;21.50
10245;DHT22;5167;52.164;10.530;2023-02-01T11:46:03;9.10;21.00
10245;DHT22;5167;52.164;10.530;2023-02-01T11:48:32;9.10;20.70
10245;DHT22;5167;52.164;10.530;2023-02-01T11:51:08;9.20;20.20
10245;DHT22;5167;52.164;10.530;2023-02-01T11:53:53;9.10;21.10
10245;DHT22;5167;52.164;10.530;2023-02-01T11:56:35;9.00;20.30
10245;DHT22;5167;52.164;10.530;2023-02-01T11:59:19;8.90;21.30
10245;DHT22;5167;52.164;10.530;2023-02-01T12:08:13;8.80;21.20
10245;DHT22;5167;52.164;10.530;2023-02-01T12:11:02;8.80;20.80
10245;DHT22;5167;52.164;10.530;2023-02-01T12:14:08;8.70;21.70
10245;DHT22;5167;52.164;10.530;2023-02-01T12:17:05;8.70;21.70
10245;DHT22;5167;52.164;10.530;2023-02-01T12:19:57;8.70;22.40
10245;DHT22;5167;52.164;10.530;2023-02-01T12:25:42;8.70;20.70
10245;DHT22;5167;52.164;10.530;2023-02-01T12:31:04;8.70;21.00
10245;DHT22;5167;52.164;10.530;2023-02-01T12:33:48;8.90;20.90
10245;DHT22;5167;52.164;10.530;2023-02-01T12:36:40;9.00;20.70
10245;DHT22;5167;52.164;10.530;2023-02-01T12:39:24;9.00;20.20
10245;DHT22;5167;52.164;10.530;2023-02-01T12:41:56;9.00;18.60
10245;DHT22;5167;52.164;10.530;2023-02-01T12:47:03;9.00;21.30
10245;DHT22;5167;52.164;10.530;2023-02-01T12:49:53;9.30;21.10
10245;DHT22;5167;52.164;10.530;2023-02-01T12:52:28;9.10;20.10
10245;DHT22;5167;52.164;10.530;2023-02-01T12:55:06;9.00;19.30
10245;DHT22;5167;52.164;10.530;2023-02-01T12:57:40;9.10;19.80
10245;DHT22;5167;52.164;10.530;2023-02-01T13:00:27;9.10;20.90
10245;DHT22;5167;52.164;10.530;2023-02-01T13:05:37;9.10;20.30
10245;DHT22;5167;52.164;10.530;2023-02-01T13:08:12;9.00;19.10
10245;DHT22;5167;52.164;10.530;2023-02-01T13:10:59;8.80;19.10
10245;DHT22;5167;52.164;10.530;2023-02-01T13:13:44;8.60;20.90
10245;DHT22;5167;52.164;10.530;2023-02-01T13:16:17;8.60;22.60
10245;DHT22;5167;52.164;10.530;2023-02-01T13:18:49;8.50;26.40
10245;DHT22;5167;52.164;10.530;2023-02-01T13:21:20;8.40;27.10
10245;DHT22;5167;52.164;10.530;2023-02-01T13:23:48;8.40;28.90
10245;DHT22;5167;52.164;10.530;2023-02-01T13:26:14;8.30;29.80
10245;DHT22;5167;52.164;10.530;2023-02-01T13:28:49;8.30;31.00
10245;DHT22;5167;52.164;10.530;2023-02-01T13:31:51;8.20;31.50
10245;DHT22;5167;52.164;10.530;2023-02-01T13:40:41;8.10;32.30
10245;DHT22;5167;52.164;10.530;2023-02-01T13:43:24;8.10;32.10
10245;DHT22;5167;52.164;10.530;2023-02-01T13:45:54;8.10;32.30
10245;DHT22;5167;52.164;10.530;2023-02-01T13:51:09;8.00;33.20
10245;DHT22;5167;52.164;10.530;2023-02-01T13:53:36;8.00;34.30
10245;DHT22;5167;52.164;10.530;2023-02-01T13:56:10;8.00;35.40
10245;DHT22;5167;52.164;10.530;2023-02-01T13:58:38;8.00;36.80
10245;DHT22;5167;52.164;10.530;2023-02-01T14:03:49;7.90;40.50
10245;DHT22;5167;52.164;10.530;2023-02-01T14:11:53;7.80;43.30
10245;DHT22;5167;52.164;10.530;2023-02-01T14:19:36;7.50;45.30
10245;DHT22;5167;52.164;10.530;2023-02-01T14:24:51;7.20;42.80
10245;DHT22;5167;52.164;10.530;2023-02-01T14:27:22;7.00;42.50
10245;DHT22;5167;52.164;10.530;2023-02-01T14:29:55;6.70;42.40
10245;DHT22;5167;52.164;10.530;2023-02-01T14:32:40;6.60;42.10
10245;DHT22;5167;52.164;10.530;2023-02-01T14:35:16;6.50;43.40
10245;DHT22;5167;52.164;10.530;2023-02-01T14:37:43;6.30;43.40
10245;DHT22;5167;52.164;10.530;2023-02-01T14:42:45;5.80;45.30
10245;DHT22;5167;52.164;10.530;2023-02-01T14:50:40;5.50;48.90
10245;DHT22;5167;52.164;10.530;2023-02-01T14:55:45;5.50;50.30
10245;DHT22;5167;52.164;10.530;2023-02-01T15:01:20;5.50;51.90
10245;DHT22;5167;52.164;10.530;2023-02-01T15:09:23;5.50;53.60
10245;DHT22;5167;52.164;10.530;2023-02-01T15:14:38;5.60;54.10
10245;DHT22;5167;52.164;10.530;2023-02-01T15:19:59;5.60;53.30
10245;DHT22;5167;52.164;10.530;2023-02-01T15:22:30;5.50;52.90
10245;DHT22;5167;52.164;10.530;2023-02-01T15:24:57;5.60;53.60
10245;DHT22;5167;52.164;10.530;2023-02-01T15:27:24;5.60;53.30
10245;DHT22;5167;52.164;10.530;2023-02-01T15:29:49;5.60;52.90
10245;DHT22;5167;52.164;10.530;2023-02-01T15:32:32;5.60;52.90
10245;DHT22;5167;52.164;10.530;2023-02-01T15:34:58;5.60;53.30
10245;DHT22;5167;52.164;10.530;2023-02-01T15:37:23;5.60;52.60
10245;DHT22;5167;52.164;10.530;2023-02-01T15:42:53;5.60;52.70
10245;DHT22;5167;52.164;10.530;2023-02-01T15:45:22;5.60;52.10
10245;DHT22;5167;52.164;10.530;2023-02-01T15:47:51;5.60;52.20
10245;DHT22;5167;52.164;10.530;2023-02-01T15:50:19;5.60;51.80
10245;DHT22;5167;52.164;10.530;2023-02-01T15:52:48;5.60;51.90
10245;DHT22;5167;52.164;10.530;2023-02-01T15:57:45;5.60;50.90
10245;DHT22;5167;52.164;10.530;2023-02-01T16:00:42;5.60;50.30
10245;DHT22;5167;52.164;10.530;2023-02-01T16:06:00;5.50;51.00
10245;DHT22;5167;52.164;10.530;2023-02-01T16:08:29;5.60;52.00
10245;DHT22;5167;52.164;10.530;2023-02-01T16:11:10;5.60;51.50
10245;DHT22;5167;52.164;10.530;2023-02-01T16:13:38;5.60;51.20
10245;DHT22;5167;52.164;10.530;2023-02-01T16:16:04;5.60;51.30
10245;DHT22;5167;52.164;10.530;2023-02-01T16:18:33;5.60;51.80
10245;DHT22;5167;52.164;10.530;2023-02-01T16:20:58;5.70;52.10
10245;DHT22;5167;52.164;10.530;2023-02-01T16:23:24;5.70;51.00
10245;DHT22;5167;52.164;10.530;2023-02-01T16:25:49;5.60;51.90
10245;DHT22;5167;52.164;10.530;2023-02-01T16:28:15;5.60;51.50
10245;DHT22;5167;52.164;10.530;2023-02-01T16:30:40;5.50;51.70
10245;DHT22;5167;52.164;10.530;2023-02-01T16:33:06;5.60;53.00
10245;DHT22;5167;52.164;10.530;2023-02-01T16:35:37;5.60;53.70
10245;DHT22;5167;52.164;10.530;2023-02-01T16:38:04;5.60;53.60
10245;DHT22;5167;52.164;10.530;2023-02-01T16:40:37;5.70;53.60
10245;DHT22;5167;52.164;10.530;2023-02-01T16:43:26;5.80;53.00
10245;DHT22;5167;52.164;10.530;2023-02-01T16:45:53;5.90;52.50
10245;DHT22;5167;52.164;10.530;2023-02-01T16:50:50;5.90;51.60
10245;DHT22;5167;52.164;10.530;2023-02-01T16:53:17;6.00;51.50
10245;DHT22;5167;52.164;10.530;2023-02-01T16:55:43;6.00;51.20
10245;DHT22;5167;52.164;10.530;2023-02-01T16:58:09;6.10;51.00
10245;DHT22;5167;52.164;10.530;2023-02-01T17:00:35;6.10;50.00
10245;DHT22;5167;52.164;10.530;2023-02-01T17:03:03;6.10;50.60
10245;DHT22;5167;52.164;10.530;2023-02-01T17:05:28;6.10;50.20
10245;DHT22;5167;52.164;10.530;2023-02-01T17:07:56;6.20;50.10
10245;DHT22;5167;52.164;10.530;2023-02-01T17:10:25;6.30;49.30
10245;DHT22;5167;52.164;10.530;2023-02-01T17:12:51;6.30;49.20
10245;DHT22;5167;52.164;10.530;2023-02-01T17:15:17;6.20;48.40
10245;DHT22;5167;52.164;10.530;2023-02-01T17:17:42;6.20;47.60
10245;DHT22;5167;52.164;10.530;2023-02-01T17:20:19;6.30;47.40
10245;DHT22;5167;52.164;10.530;2023-02-01T17:22:46;6.20;46.70
10245;DHT22;5167;52.164;10.530;2023-02-01T17:25:17;6.30;46.70
10245;DHT22;5167;52.164;10.530;2023-02-01T17:27:43;6.20;46.80
10245;DHT22;5167;52.164;10.530;2023-02-01T17:30:12;6.30;46.70
10245;DHT22;5167;52.164;10.530;2023-02-01T17:32:38;6.30;46.60
10245;DHT22;5167;52.164;10.530;2023-02-01T17:35:08;6.30;46.20
10245;DHT22;5167;52.164;10.530;2023-02-01T17:37:37;6.30;45.70
10245;DHT22;5167;52.164;10.530;2023-02-01T17:40:03;6.40;46.50
10245;DHT22;5167;52.164;10.530;2023-02-01T17:42:29;6.40;46.50
10245;DHT22;5167;52.164;10.530;2023-02-01T17:45:02;6.40;46.40
10245;DHT22;5167;52.164;10.530;2023-02-01T17:47:36;6.40;46.50
10245;DHT22;5167;52.164;10.530;2023-02-01T17:50:03;6.40;46.30